Pacaembu, Brazil
Current Conditions -  °F | °C
As of 10:00 AM on Wednesday 26 Nov 2014 (Local Time) from SBDN Reporting Station
Broken Clouds Broken Clouds  
Wind Chill: 77°   Ceiling: 6000
Heat Index: 79°   Visibility: 6mi
Dew Point: 70°   Wind: 5mph
Humidity: 78%   Direction: 290°WNW
Pressure: 29.83"   Gusts: NA
Location:  21.56°S, 51.26°W
Report Text: SBDN 261200Z 29004KT 9999 SCT010 BKN060 25/21 Q1010
Loading
Personal Weather Stations






























Interactive Weather Map New forecast layout! Learn more

10-Day Weather Forecast

Advertisements
Track Severe Weather on mobile